Time;durP1;ratioP1;P1;durP2;ratioP2;P2;SDS_P1;SDS_P2;PMS_P1;PMS_P2;Temp;Humidity;BMP_temperature;BMP_pressure;BME280_temperature;BME280_humidity;BME280_pressure;Samples;Min_cycle;Max_cycle;Signal;HPM_P1;HPM_P2
2022/08/23 00:02:01;;;;;;;4.30;3.90;;;;;18.90;98775.00;;;;16722090;28;20214;-51
2022/08/23 00:10:03;;;;;;;4.50;4.10;;;;;18.70;98766.00;;;;16721380;28;20252;-51
2022/08/23 00:18:07;;;;;;;5.00;4.60;;;;;18.70;98767.00;;;;16720658;28;20200;-51
2022/08/23 00:26:10;;;;;;;4.97;4.47;;;;;18.90;98765.00;;;;16720025;28;20773;-51
2022/08/23 00:34:14;;;;;;;5.30;3.97;;;;;18.60;98765.00;;;;16720253;28;20304;-51
2022/08/23 00:50:55;;;;;;;4.50;4.10;;;;;18.20;98754.00;;;;16718866;28;20218;-51
2022/08/23 00:58:58;;;;;;;4.40;4.10;;;;;18.50;98751.00;;;;16716715;28;20292;-51
2022/08/23 01:07:05;;;;;;;4.70;4.10;;;;;18.10;98755.00;;;;16718838;28;20210;-51
2022/08/23 01:15:14;;;;;;;4.77;4.37;;;;;18.20;98751.00;;;;16717958;28;20279;-50
2022/08/23 01:23:36;;;;;;;4.43;4.03;;;;;18.20;98766.00;;;;16717687;28;20206;-51
2022/08/23 01:31:39;;;;;;;5.30;4.80;;;;;18.00;98766.00;;;;16724712;28;20257;-51
2022/08/23 01:39:42;;;;;;;4.40;4.00;;;;;18.10;98768.00;;;;16731284;28;20248;-51
2022/08/23 01:47:45;;;;;;;4.23;3.83;;;;;17.90;98767.00;;;;16729322;28;20279;-50
2022/08/23 01:55:49;;;;;;;4.90;4.50;;;;;18.10;98768.00;;;;16727397;28;20212;-51
2022/08/23 02:03:55;;;;;;;4.90;4.50;;;;;17.30;98770.00;;;;16744788;28;20315;-51
2022/08/23 02:11:59;;;;;;;4.83;4.30;;;;;17.50;98784.00;;;;16728401;28;20244;-51
2022/08/23 02:20:03;;;;;;;5.20;4.70;;;;;18.00;98784.00;;;;16744161;28;20686;-51
2022/08/23 02:28:07;;;;;;;4.97;4.50;;;;;18.30;98774.00;;;;16743201;28;20291;-50
2022/08/23 02:36:10;;;;;;;5.40;4.93;;;;;18.20;98776.00;;;;16724466;28;20256;-51
2022/08/23 02:44:14;;;;;;;5.53;5.03;;;;;17.70;98785.00;;;;16724499;28;20258;-50
2022/08/23 02:52:16;;;;;;;5.30;4.70;;;;;17.30;98780.00;;;;16723920;28;20371;-51
2022/08/23 03:00:20;;;;;;;5.33;4.90;;;;;17.10;98796.00;;;;16741048;28;20218;-51
2022/08/23 03:08:25;;;;;;;4.77;4.37;;;;;17.40;98792.00;;;;16725359;28;20256;-52
2022/08/23 03:16:29;;;;;;;5.50;5.00;;;;;17.00;98792.00;;;;16725074;28;20735;-51
2022/08/23 03:24:32;;;;;;;5.70;5.20;;;;;17.10;98801.00;;;;16724462;28;20225;-51
2022/08/23 03:32:37;;;;;;;6.17;5.37;;;;;17.40;98801.00;;;;16738983;28;20727;-51
2022/08/23 03:48:51;;;;;;;5.73;5.20;;;;;17.30;98804.00;;;;16649088;28;20228;-50
2022/08/23 03:56:58;;;;;;;6.13;5.63;;;;;16.90;98815.00;;;;16650631;28;20280;-49
2022/08/23 04:05:02;;;;;;;5.57;5.07;;;;;16.40;98821.00;;;;16668978;28;20228;-48
2022/08/23 04:13:14;;;;;;;6.60;6.00;;;;;16.20;98841.00;;;;16651794;28;20229;-49
2022/08/23 04:21:21;;;;;;;5.50;5.10;;;;;16.10;98841.00;;;;16653087;28;20229;-48
2022/08/23 04:29:24;;;;;;;6.33;5.83;;;;;16.10;98850.00;;;;16652872;28;20885;-49
2022/08/23 04:37:28;;;;;;;6.07;5.50;;;;;16.10;98859.00;;;;16651309;28;20229;-49
2022/08/23 04:45:32;;;;;;;6.93;6.17;;;;;16.00;98870.00;;;;16650146;28;20240;-50
2022/08/23 04:53:36;;;;;;;6.27;5.87;;;;;16.20;98878.00;;;;16649015;28;20666;-50
2022/08/23 05:02:05;;;;;;;6.00;5.60;;;;;16.00;98892.00;;;;16651098;28;20216;-50
2022/08/23 05:10:12;;;;;;;6.63;6.13;;;;;16.30;98892.00;;;;16648635;28;20225;-49
2022/08/23 05:18:16;;;;;;;5.83;5.33;;;;;17.30;98880.00;;;;16649713;28;20599;-50
2022/08/23 05:26:20;;;;;;;6.17;5.60;;;;;17.90;98875.00;;;;16649098;28;20238;-50
2022/08/23 05:34:24;;;;;;;9.80;6.00;;;;;18.40;98875.00;;;;16647813;28;20225;-50
2022/08/23 05:42:31;;;;;;;6.93;6.23;;;;;18.90;98880.00;;;;16648246;28;20229;-50
2022/08/23 05:50:35;;;;;;;6.63;5.87;;;;;19.60;98875.00;;;;16649731;28;20272;-50
2022/08/23 05:58:40;;;;;;;8.03;6.10;;;;;19.20;98884.00;;;;16647199;28;20216;-50
2022/08/23 06:06:43;;;;;;;6.87;6.27;;;;;19.70;98891.00;;;;16649587;28;20219;-49
2022/08/23 06:14:48;;;;;;;7.37;6.60;;;;;19.70;98900.00;;;;16648178;28;20253;-50
2022/08/23 06:22:51;;;;;;;7.73;6.93;;;;;20.00;98910.00;;;;16659016;28;20218;-49
2022/08/23 06:30:56;;;;;;;7.53;6.83;;;;;20.20;98902.00;;;;16658272;28;20538;-49
2022/08/23 06:39:09;;;;;;;7.57;6.33;;;;;20.70;98909.00;;;;16657845;28;20203;-49
2022/08/23 06:47:31;;;;;;;10.63;8.00;;;;;21.00;98903.00;;;;16659967;28;20710;-49
2022/08/23 06:55:34;;;;;;;7.20;6.50;;;;;21.50;98907.00;;;;16657327;28;20226;-48
2022/08/23 07:03:55;;;;;;;7.67;6.80;;;;;21.70;98907.00;;;;16656786;28;20225;-50
2022/08/23 07:12:27;;;;;;;12.07;7.10;;;;;21.80;98902.00;;;;16648573;28;20321;-50
2022/08/23 07:20:31;;;;;;;9.70;6.83;;;;;22.10;98913.00;;;;16656299;28;20195;-48
2022/08/23 07:28:34;;;;;;;8.27;7.47;;;;;22.30;98915.00;;;;16656986;28;20215;-50
2022/08/23 07:36:40;;;;;;;8.90;6.90;;;;;22.70;98911.00;;;;16655889;28;20229;-50
2022/08/23 07:44:43;;;;;;;6.73;5.90;;;;;23.10;98917.00;;;;16654754;28;20241;-49
2022/08/23 07:52:47;;;;;;;8.13;6.70;;;;;23.40;98923.00;;;;16652680;28;20415;-50
2022/08/23 08:00:50;;;;;;;9.93;6.03;;;;;23.90;98918.00;;;;16653247;28;20199;-49
2022/08/23 08:09:19;;;;;;;7.73;5.37;;;;;24.40;98923.00;;;;16654979;28;20230;-49
2022/08/23 08:17:22;;;;;;;7.20;6.50;;;;;24.70;98924.00;;;;16669684;28;20292;-50
2022/08/23 08:25:44;;;;;;;5.93;5.17;;;;;25.40;98925.00;;;;16654578;28;20219;-49
2022/08/23 08:33:50;;;;;;;6.47;5.77;;;;;25.70;98921.00;;;;16651848;28;20222;-50
2022/08/23 08:42:06;;;;;;;6.50;4.80;;;;;25.50;98928.00;;;;16650567;28;20226;-49
2022/08/23 08:50:19;;;;;;;5.63;5.00;;;;;25.80;98939.00;;;;16652267;28;20210;-49
2022/08/23 08:58:30;;;;;;;6.00;3.97;;;;;26.10;98934.00;;;;16650122;28;20305;-49
2022/08/23 09:06:42;;;;;;;5.17;4.60;;;;;26.70;98938.00;;;;16651089;28;20722;-50
2022/08/23 09:14:58;;;;;;;4.57;3.87;;;;;27.20;98940.00;;;;16667847;28;20219;-50
2022/08/23 09:23:07;;;;;;;4.87;4.10;;;;;27.30;98931.00;;;;16650972;28;20264;-50
2022/08/23 09:31:38;;;;;;;4.20;3.73;;;;;27.60;98933.00;;;;16649668;28;20241;-49
2022/08/23 09:39:43;;;;;;;4.43;2.73;;;;;27.90;98933.00;;;;16649582;28;20210;-50
2022/08/23 09:47:52;;;;;;;2.67;2.47;;;;;27.90;98931.00;;;;16662801;22;20230;-83
2022/08/23 09:56:09;;;;;;;3.17;2.20;;;;;28.20;98920.00;;;;16630541;28;20222;-82
2022/08/23 10:04:16;;;;;;;3.30;2.33;;;;;28.60;98921.00;;;;16628715;28;20736;-82
2022/08/23 10:12:19;;;;;;;2.67;2.43;;;;;29.90;98917.00;;;;16601524;28;20247;-82
2022/08/23 10:20:32;;;;;;;3.57;2.43;;;;;30.10;98922.00;;;;16597620;28;20220;-81
2022/08/23 10:37:17;;;;;;;4.30;2.70;;;;;31.20;98906.00;;;;16595362;28;20290;-82
2022/08/23 10:45:25;;;;;;;3.73;2.40;;;;;32.20;98896.00;;;;16595992;28;20225;-81
2022/08/23 10:53:40;;;;;;;4.30;2.37;;;;;31.70;98892.00;;;;16606268;28;20258;-81
2022/08/23 11:01:49;;;;;;;4.53;2.80;;;;;32.90;98886.00;;;;16626155;28;20219;-81
2022/08/23 11:09:58;;;;;;;3.93;2.43;;;;;33.30;98891.00;;;;16621064;28;20734;-81
2022/08/23 11:18:06;;;;;;;2.40;2.20;;;;;33.30;98878.00;;;;16626670;28;20607;-81
2022/08/23 11:27:00;;;;;;;2.70;2.30;;;;;35.00;98879.00;;;;16591617;28;20223;-81
2022/08/23 11:35:29;;;;;;;2.20;2.00;;;;;33.20;98881.00;;;;16591388;28;20219;-81
2022/08/23 11:43:36;;;;;;;2.70;2.50;;;;;33.70;98869.00;;;;16601171;28;20669;-82
2022/08/23 11:51:45;;;;;;;3.63;2.10;;;;;33.70;98867.00;;;;16612469;28;20314;-81
2022/08/23 12:00:07;;;;;;;2.60;2.17;;;;;34.30;98867.00;;;;16623417;28;20790;-81
2022/08/23 12:08:45;;;;;;;2.80;2.30;;;;;36.30;98858.00;;;;16598772;28;20233;-81
2022/08/23 12:16:49;;;;;;;5.97;2.83;;;;;35.30;98864.00;;;;16615601;28;20215;-81
2022/08/23 12:24:53;;;;;;;3.70;2.33;;;;;36.00;98865.00;;;;16622188;28;20759;-81
2022/08/23 12:33:02;;;;;;;4.63;2.30;;;;;33.60;98861.00;;;;16591250;28;20239;-81
2022/08/23 12:41:19;;;;;;;4.40;2.60;;;;;35.70;98861.00;;;;16592551;28;20235;-81
2022/08/23 12:49:28;;;;;;;3.73;2.40;;;;;35.70;98855.00;;;;16669876;22;20317;-52
2022/08/23 12:57:34;;;;;;;2.93;2.20;;;;;34.30;98854.00;;;;16601800;28;20223;-52
2022/08/23 13:05:43;;;;;;;2.33;2.13;;;;;37.40;98844.00;;;;16587496;28;20755;-51
2022/08/23 13:13:46;;;;;;;2.70;2.47;;;;;36.90;98848.00;;;;16587040;28;20231;-51
2022/08/23 13:22:09;;;;;;;2.30;2.07;;;;;35.30;98846.00;;;;16587029;28;20225;-52
2022/08/23 13:30:21;;;;;;;4.13;2.37;;;;;36.90;98838.00;;;;16598165;28;20240;-50
2022/08/23 13:38:30;;;;;;;3.00;2.50;;;;;40.10;98834.00;;;;16599366;28;20290;-51
2022/08/23 13:46:35;;;;;;;2.13;1.93;;;;;37.30;98828.00;;;;16599825;28;20233;-52
2022/08/23 13:54:39;;;;;;;3.50;2.50;;;;;37.80;98834.00;;;;16598041;28;20219;-51
2022/08/23 14:02:43;;;;;;;2.40;2.20;;;;;37.40;98828.00;;;;16598043;28;20616;-53
2022/08/23 14:10:47;;;;;;;2.90;2.40;;;;;36.40;98826.00;;;;16598245;28;20301;-51
2022/08/23 14:18:49;;;;;;;3.50;2.40;;;;;37.00;98824.00;;;;16599174;28;20258;-51
2022/08/23 14:26:54;;;;;;;2.67;2.47;;;;;38.40;98821.00;;;;16597072;28;20246;-52
2022/08/23 14:34:56;;;;;;;3.77;2.47;;;;;38.30;98819.00;;;;16596341;28;20215;-52
2022/08/23 14:43:00;;;;;;;2.00;1.90;;;;;39.30;98815.00;;;;16595111;28;20678;-52
2022/08/23 14:51:02;;;;;;;4.50;2.50;;;;;37.80;98806.00;;;;16595656;28;20230;-52
2022/08/23 14:59:07;;;;;;;3.60;2.47;;;;;38.70;98820.00;;;;16595371;28;20223;-51
2022/08/23 15:07:09;;;;;;;2.67;2.10;;;;;39.70;98821.00;;;;16645430;28;20221;-51
2022/08/23 15:15:15;;;;;;;2.10;1.90;;;;;40.10;98816.00;;;;16660619;28;20230;-51
2022/08/23 15:23:17;;;;;;;3.70;2.30;;;;;39.60;98818.00;;;;16659207;28;20252;-52
2022/08/23 15:31:21;;;;;;;2.20;1.97;;;;;39.90;98823.00;;;;16658754;28;20317;-52
2022/08/23 15:39:24;;;;;;;3.20;2.10;;;;;41.00;98822.00;;;;16657868;28;20199;-52
2022/08/23 15:47:31;;;;;;;6.70;3.20;;;;;35.30;98814.00;;;;16787105;22;20235;-79
2022/08/23 15:55:34;;;;;;;2.67;2.47;;;;;35.20;98824.00;;;;16838741;28;20252;-79
2022/08/23 16:03:38;;;;;;;2.27;2.07;;;;;36.40;98813.00;;;;16864160;28;20188;-79
2022/08/23 16:11:40;;;;;;;2.87;2.67;;;;;34.90;98815.00;;;;16863921;28;20768;-78
2022/08/23 16:19:44;;;;;;;3.00;2.80;;;;;34.90;98805.00;;;;16861470;28;20200;-79
2022/08/23 16:27:47;;;;;;;3.40;3.10;;;;;38.10;98803.00;;;;16877545;28;20239;-80
2022/08/23 16:35:51;;;;;;;2.77;2.57;;;;;36.60;98814.00;;;;16867341;28;20216;-79
2022/08/23 16:43:53;;;;;;;3.83;2.70;;;;;35.00;98815.00;;;;16856526;28;20200;-78
2022/08/23 16:51:57;;;;;;;5.30;2.53;;;;;34.50;98812.00;;;;16857283;28;20731;-79
2022/08/23 17:00:00;;;;;;;2.70;2.50;;;;;34.00;98816.00;;;;16856395;28;20212;-79
2022/08/23 17:08:04;;;;;;;5.07;4.57;;;;;32.70;98811.00;;;;16854842;28;20220;-79
2022/08/23 17:16:09;;;;;;;4.80;4.30;;;;;28.80;98828.00;;;;16854455;28;20720;-78
2022/08/23 17:24:13;;;;;;;5.10;4.53;;;;;28.70;98829.00;;;;16875635;28;20193;-79
2022/08/23 17:32:15;;;;;;;4.33;3.93;;;;;28.80;98832.00;;;;16875761;28;20212;-79
2022/08/23 17:40:23;;;;;;;4.53;3.70;;;;;28.70;98842.00;;;;16875080;28;20215;-79
2022/08/23 17:48:27;;;;;;;5.70;4.07;;;;;28.00;98841.00;;;;16854439;28;20237;-79
2022/08/23 17:56:31;;;;;;;3.97;3.63;;;;;27.30;98854.00;;;;16858771;28;20244;-78
2022/08/23 18:04:33;;;;;;;4.93;4.53;;;;;26.70;98861.00;;;;16863308;28;20262;-79
2022/08/23 18:12:37;;;;;;;6.47;4.27;;;;;26.20;98872.00;;;;16871286;28;20231;-79
2022/08/23 18:20:40;;;;;;;3.97;3.57;;;;;25.90;98879.00;;;;16886384;28;20231;-79
2022/08/23 18:28:43;;;;;;;5.03;3.90;;;;;25.80;98893.00;;;;16870961;28;20602;-80
2022/08/23 18:36:46;;;;;;;3.83;3.53;;;;;24.90;98891.00;;;;16858839;28;20228;-79
2022/08/23 18:44:50;;;;;;;4.97;4.50;;;;;24.50;98901.00;;;;16886089;22;20298;-49
2022/08/23 18:52:52;;;;;;;4.23;3.93;;;;;24.10;98906.00;;;;16831744;28;20238;-49
2022/08/23 19:00:56;;;;;;;4.30;3.63;;;;;24.10;98923.00;;;;16792751;28;20642;-49
2022/08/23 19:08:59;;;;;;;5.53;4.10;;;;;23.90;98943.00;;;;16790498;28;20239;-49
2022/08/23 19:17:06;;;;;;;3.73;3.43;;;;;23.60;98945.00;;;;16791770;28;20228;-49
2022/08/23 19:25:09;;;;;;;4.97;3.70;;;;;23.30;98950.00;;;;16789293;28;20378;-50
2022/08/23 19:33:13;;;;;;;4.07;3.50;;;;;23.30;98956.00;;;;16790943;28;20225;-49
2022/08/23 19:41:16;;;;;;;4.70;4.30;;;;;23.30;98954.00;;;;16790443;28;20225;-49
2022/08/23 19:49:20;;;;;;;4.63;4.27;;;;;22.70;98958.00;;;;16788590;28;20432;-49
2022/08/23 19:57:22;;;;;;;4.63;4.17;;;;;22.90;98974.00;;;;16824948;28;20212;-49
2022/08/23 20:05:26;;;;;;;4.33;3.47;;;;;22.40;98974.00;;;;16855077;28;20307;-49
2022/08/23 20:13:28;;;;;;;7.67;4.07;;;;;22.40;98996.00;;;;16854768;28;20234;-49
2022/08/23 20:21:32;;;;;;;4.07;3.70;;;;;22.50;98998.00;;;;16854582;28;20556;-49
2022/08/23 20:29:35;;;;;;;3.67;3.37;;;;;23.00;99006.00;;;;16854670;28;20229;-50
2022/08/23 20:37:39;;;;;;;4.20;3.90;;;;;22.10;99006.00;;;;16852433;28;20309;-50
2022/08/23 20:45:41;;;;;;;4.40;4.10;;;;;22.00;99014.00;;;;16852989;28;20269;-49
2022/08/23 20:53:45;;;;;;;5.30;3.93;;;;;22.30;99004.00;;;;16852022;28;20772;-48
2022/08/23 21:01:48;;;;;;;4.77;4.33;;;;;22.50;99019.00;;;;16844875;28;20204;-50
2022/08/23 21:09:52;;;;;;;4.10;3.80;;;;;22.00;99024.00;;;;16784579;28;20225;-49
2022/08/23 21:17:54;;;;;;;4.80;4.40;;;;;21.90;99033.00;;;;16785180;28;20219;-49
2022/08/23 21:25:58;;;;;;;4.40;4.00;;;;;21.70;99021.00;;;;16784606;28;20219;-50
2022/08/23 21:34:01;;;;;;;8.67;4.63;;;;;21.20;99019.00;;;;16784301;28;20571;-47
2022/08/23 21:50:39;;;;;;;4.70;4.07;;;;;21.90;99026.00;;;;16594804;28;20257;-51
2022/08/23 21:58:42;;;;;;;4.73;4.30;;;;;21.50;99033.00;;;;16598767;28;20306;-50
2022/08/23 22:06:47;;;;;;;5.20;4.70;;;;;21.30;99021.00;;;;16598866;28;20773;-52
2022/08/23 22:14:49;;;;;;;5.80;5.10;;;;;21.50;99018.00;;;;16597451;28;20227;-51
2022/08/23 22:22:53;;;;;;;4.60;4.20;;;;;21.00;99018.00;;;;16597295;28;20305;-52
2022/08/23 22:30:57;;;;;;;5.27;4.87;;;;;20.80;99021.00;;;;16597245;28;20734;-51
2022/08/23 22:39:01;;;;;;;6.13;4.70;;;;;21.20;99014.00;;;;16596317;28;20575;-52
2022/08/23 22:47:03;;;;;;;4.53;4.17;;;;;20.80;99011.00;;;;16596277;28;20231;-53
2022/08/23 22:55:08;;;;;;;5.90;4.57;;;;;21.20;99010.00;;;;16595027;28;20227;-53
2022/08/23 23:03:10;;;;;;;5.50;5.00;;;;;20.90;99006.00;;;;16594361;28;20212;-52
2022/08/23 23:11:16;;;;;;;8.80;5.00;;;;;20.80;99004.00;;;;16593886;28;20305;-51
2022/08/23 23:27:40;;;;;;;6.33;5.80;;;;;20.30;99011.00;;;;16594443;28;20227;-52
2022/08/23 23:35:43;;;;;;;5.50;5.00;;;;;20.70;99003.00;;;;16593623;28;20215;-52
2022/08/23 23:43:47;;;;;;;5.57;5.10;;;;;20.90;99001.00;;;;16593448;28;20233;-51
2022/08/23 23:51:49;;;;;;;5.97;5.47;;;;;20.10;99007.00;;;;16590363;28;20230;-52
2022/08/23 23:59:55;;;;;;;6.83;5.80;;;;;19.60;99006.00;;;;16591099;28;20751;-52
